Time;durP1;ratioP1;P1;durP2;ratioP2;P2;SDS_P1;SDS_P2;PMS_P1;PMS_P2;Temp;Humidity;BMP_temperature;BMP_pressure;BME280_temperature;BME280_humidity;BME280_pressure;Samples;Min_cycle;Max_cycle;Signal;HPM_P1;HPM_P2
2022/03/27 00:00:28;;;;;;;1.97;1.70;;;;;;;-4.22;49.11;101244.19;4974087;28;20046;-65
2022/03/27 00:02:53;;;;;;;1.77;1.63;;;;;;;-4.18;49.49;101266.56;4956996;28;20126;-63
2022/03/27 00:05:19;;;;;;;2.10;2.00;;;;;;;-4.10;48.81;101271.47;4974412;28;20030;-65
2022/03/27 00:07:46;;;;;;;3.15;1.75;;;;;;;-4.11;48.62;101260.22;4974033;28;20606;-64
2022/03/27 00:10:11;;;;;;;1.80;1.70;;;;;;;-4.15;49.25;101273.41;4974242;28;20129;-63
2022/03/27 00:12:37;;;;;;;2.03;1.93;;;;;;;-4.23;49.14;101276.28;4973871;28;20121;-64
2022/03/27 00:15:04;;;;;;;1.77;1.60;;;;;;;-4.16;49.36;101316.78;4973997;28;20129;-62
2022/03/27 00:17:32;;;;;;;2.95;1.65;;;;;;;-4.23;49.03;101288.44;4974069;28;20117;-65
2022/03/27 00:20:03;;;;;;;2.88;2.00;;;;;;;-4.20;49.04;101299.59;4974689;28;20061;-64
2022/03/27 00:22:29;;;;;;;1.83;1.73;;;;;;;-4.23;50.42;101304.06;4974521;28;20037;-62
2022/03/27 00:24:56;;;;;;;2.33;2.15;;;;;;;-4.24;49.34;101297.16;4973904;28;20101;-64
2022/03/27 00:27:22;;;;;;;2.40;2.10;;;;;;;-4.34;49.56;101299.22;4974180;28;20031;-63
2022/03/27 00:29:49;;;;;;;1.80;1.70;;;;;;;-4.32;49.85;101294.84;4973668;28;20129;-65
2022/03/27 00:32:14;;;;;;;2.25;1.85;;;;;;;-4.39;49.73;101319.34;4973787;28;20031;-64
2022/03/27 00:34:40;;;;;;;3.40;2.07;;;;;;;-4.34;49.84;101316.56;4973908;28;20050;-65
2022/03/27 00:37:05;;;;;;;2.30;2.10;;;;;;;-4.37;49.46;101323.56;4974006;28;20558;-65
2022/03/27 00:39:31;;;;;;;3.20;2.03;;;;;;;-4.41;50.47;101345.41;4973945;28;20163;-61
2022/03/27 00:41:58;;;;;;;2.00;1.90;;;;;;;-4.43;49.59;101335.94;4973719;28;20057;-64
2022/03/27 00:44:26;;;;;;;6.70;2.13;;;;;;;-4.49;50.65;101323.16;4973516;28;20041;-64
2022/03/27 00:46:51;;;;;;;2.47;2.27;;;;;;;-4.46;49.77;101338.66;4973612;28;20043;-65
2022/03/27 00:49:16;;;;;;;2.17;2.00;;;;;;;-4.41;50.15;101344.53;4973765;28;20045;-64
2022/03/27 00:51:42;;;;;;;2.50;1.83;;;;;;;-4.45;49.64;101345.56;4973490;28;20469;-62
2022/03/27 00:54:08;;;;;;;5.53;1.87;;;;;;;-4.55;49.89;101329.44;4974088;28;20042;-64
2022/03/27 00:56:33;;;;;;;1.93;1.70;;;;;;;-4.53;50.62;101348.44;4973604;28;20027;-64
2022/03/27 00:58:59;;;;;;;2.83;2.37;;;;;;;-4.54;50.27;101356.28;4973879;28;20034;-63
2022/03/27 01:01:39;;;;;;;2.97;2.63;;;;;;;-4.59;50.22;101358.19;4973643;28;20113;-64
2022/03/27 01:04:07;;;;;;;2.88;2.67;;;;;;;-4.53;51.17;101369.22;4956176;28;20405;-62
2022/03/27 01:06:36;;;;;;;2.92;2.65;;;;;;;-4.56;50.17;101365.88;4973266;28;20046;-63
2022/03/27 01:11:49;;;;;;;2.30;2.10;;;;;;;-4.44;49.45;101378.44;4973574;28;20162;-63
2022/03/27 01:14:34;;;;;;;5.20;2.70;;;;;;;-4.40;49.69;101378.28;4973039;28;20125;-63
2022/03/27 01:17:07;;;;;;;2.25;2.05;;;;;;;-4.39;49.35;101392.13;4973090;28;20034;-64
2022/03/27 01:19:41;;;;;;;2.15;1.98;;;;;;;-4.50;49.42;101394.28;4972938;28;20045;-62
2022/03/27 01:22:08;;;;;;;2.85;1.70;;;;;;;-4.48;50.12;101392.47;4973151;28;20027;-64
2022/03/27 01:24:33;;;;;;;2.00;1.80;;;;;;;-4.58;49.73;101404.09;4973110;28;20051;-61
2022/03/27 01:26:59;;;;;;;1.70;1.60;;;;;;;-4.62;49.81;101399.88;4973220;28;20046;-66
2022/03/27 01:29:25;;;;;;;2.00;1.80;;;;;;;-4.69;50.29;101405.25;4973304;28;20142;-64
2022/03/27 01:31:51;;;;;;;1.73;1.63;;;;;;;-4.85;50.55;101401.47;4955722;28;20099;-63
2022/03/27 01:34:18;;;;;;;1.90;1.80;;;;;;;-4.84;51.09;101420.50;4972694;28;20402;-62
2022/03/27 01:36:43;;;;;;;2.28;2.05;;;;;;;-4.92;51.25;101418.13;4972995;28;20074;-63
2022/03/27 01:39:12;;;;;;;3.13;1.60;;;;;;;-4.86;51.64;101438.75;4972957;28;20462;-62
2022/03/27 01:41:39;;;;;;;2.30;2.10;;;;;;;-4.92;52.02;101423.31;4972816;28;20046;-62
2022/03/27 01:44:07;;;;;;;2.05;1.75;;;;;;;-4.88;51.33;101435.34;4973256;28;20054;-63
2022/03/27 01:46:35;;;;;;;1.88;1.77;;;;;;;-4.90;51.39;101436.31;4973182;28;20063;-64
2022/03/27 01:49:03;;;;;;;6.95;1.65;;;;;;;-4.99;52.39;101434.81;4973128;28;20042;-64
2022/03/27 01:51:30;;;;;;;3.42;1.90;;;;;;;-4.94;52.10;101463.25;4973549;28;20449;-64
2022/03/27 01:53:56;;;;;;;1.90;1.65;;;;;;;-4.98;52.25;101446.91;4973172;28;20043;-66
2022/03/27 01:56:21;;;;;;;2.53;1.90;;;;;;;-5.07;52.52;101444.59;4972941;28;20577;-62
2022/03/27 01:58:47;;;;;;;1.80;1.70;;;;;;;-5.01;52.72;101452.19;4972972;28;20131;-63
2022/03/27 02:01:12;;;;;;;1.60;1.50;;;;;;;-4.97;52.53;101460.75;4972738;28;20050;-63
2022/03/27 02:03:38;;;;;;;1.87;1.77;;;;;;;-4.96;53.15;101473.69;4955208;28;20053;-61
2022/03/27 02:06:05;;;;;;;2.10;1.70;;;;;;;-4.98;53.54;101480.69;4972810;28;20074;-63
2022/03/27 02:08:33;;;;;;;2.08;1.98;;;;;;;-5.03;53.31;101469.59;4972985;28;20039;-64
2022/03/27 02:11:23;;;;;;;1.80;1.70;;;;;;;-5.01;53.86;101483.38;4972922;28;20089;-64
2022/03/27 02:13:50;;;;;;;1.77;1.67;;;;;;;-5.07;53.89;101483.56;4973707;28;20078;-63
2022/03/27 02:16:16;;;;;;;1.73;1.63;;;;;;;-5.03;53.86;101492.97;4976664;28;20483;-65
2022/03/27 02:18:42;;;;;;;1.80;1.70;;;;;;;-5.12;54.42;101495.84;4976384;28;20050;-61
2022/03/27 02:21:08;;;;;;;2.17;1.40;;;;;;;-5.11;54.23;101506.19;4976410;28;20046;-61
2022/03/27 02:23:34;;;;;;;1.83;1.55;;;;;;;-5.09;54.13;101493.16;4976082;28;20407;-61
2022/03/27 02:25:59;;;;;;;2.33;1.93;;;;;;;-5.16;54.45;101502.88;4976145;28;20035;-63
2022/03/27 02:28:25;;;;;;;2.63;1.67;;;;;;;-5.16;54.68;101499.41;4976247;28;20035;-64
2022/03/27 02:30:52;;;;;;;2.27;1.60;;;;;;;-5.18;54.69;101522.00;4976228;28;20035;-62
2022/03/27 02:33:17;;;;;;;2.10;1.90;;;;;;;-5.22;55.16;101526.41;4976160;28;20486;-63
2022/03/27 02:35:43;;;;;;;2.00;1.90;;;;;;;-5.35;55.30;101505.13;4975985;28;20042;-61
2022/03/27 02:38:08;;;;;;;2.83;1.60;;;;;;;-5.26;55.21;101524.78;4976008;28;20093;-62
2022/03/27 02:40:35;;;;;;;3.77;1.60;;;;;;;-5.30;55.04;101525.78;4975825;28;20565;-62
2022/03/27 02:43:01;;;;;;;1.60;1.50;;;;;;;-5.75;55.17;101463.03;4976053;28;20059;-65
2022/03/27 02:45:28;;;;;;;2.13;1.50;;;;;;;-5.38;55.03;101530.34;4976149;28;20046;-64
2022/03/27 02:47:55;;;;;;;2.30;1.67;;;;;;;-5.39;55.24;101549.41;4975954;28;20045;-65
2022/03/27 02:50:20;;;;;;;1.67;1.58;;;;;;;-5.37;55.63;101548.47;4975894;28;20501;-63
2022/03/27 02:52:46;;;;;;;4.60;1.97;;;;;;;-5.44;55.91;101549.53;4975673;28;20043;-62
2022/03/27 02:55:12;;;;;;;1.47;1.37;;;;;;;-5.49;55.54;101546.22;4975743;28;20050;-63
2022/03/27 02:57:38;;;;;;;1.73;1.63;;;;;;;-5.53;55.89;101549.75;4958206;28;20041;-62
2022/03/27 03:00:07;;;;;;;1.73;1.63;;;;;;;-5.49;55.54;101569.56;4975742;28;20045;-62
2022/03/27 03:02:33;;;;;;;26.77;3.15;;;;;;;-5.50;55.23;101565.25;4975736;28;20046;-64
2022/03/27 03:04:59;;;;;;;1.98;1.88;;;;;;;-5.50;55.36;101554.88;4975557;28;20042;-63
2022/03/27 03:07:25;;;;;;;2.00;1.83;;;;;;;-5.49;56.49;101566.09;4975538;28;20046;-64
2022/03/27 03:09:51;;;;;;;1.55;1.45;;;;;;;-5.58;55.95;101554.22;4958502;28;20490;-63
2022/03/27 03:12:17;;;;;;;2.20;2.08;;;;;;;-5.54;55.74;101576.59;4975223;28;20426;-64
2022/03/27 03:14:43;;;;;;;2.03;1.70;;;;;;;-5.57;55.95;101565.47;4975600;28;20043;-64
2022/03/27 03:17:09;;;;;;;1.95;1.83;;;;;;;-5.58;56.66;101587.97;4975082;28;20046;-63
2022/03/27 03:19:35;;;;;;;1.87;1.73;;;;;;;-5.65;55.28;101573.44;4975410;28;20042;-64
2022/03/27 03:22:00;;;;;;;1.80;1.70;;;;;;;-5.58;56.04;101587.97;4975965;28;20446;-65
2022/03/27 03:24:27;;;;;;;2.10;2.00;;;;;;;-5.61;55.71;101593.22;4975125;28;20039;-62
2022/03/27 03:26:57;;;;;;;2.17;1.98;;;;;;;-5.63;55.39;101585.50;4975027;28;20061;-65
2022/03/27 03:29:22;;;;;;;2.03;1.92;;;;;;;-5.66;55.32;101595.09;4975708;28;20082;-63
2022/03/27 03:31:49;;;;;;;1.83;1.73;;;;;;;-5.63;54.41;101597.63;4975610;28;20038;-63
2022/03/27 03:34:15;;;;;;;2.25;2.05;;;;;;;-5.62;55.20;101601.91;4977164;28;20134;-62
2022/03/27 03:36:41;;;;;;;2.17;1.90;;;;;;;-5.67;54.70;101616.75;4976083;28;20513;-63
2022/03/27 03:39:07;;;;;;;15.40;4.20;;;;;;;-5.68;54.84;101607.25;4975957;28;20047;-63
2022/03/27 03:41:34;;;;;;;1.65;1.55;;;;;;;-5.73;54.45;101624.69;4975088;28;20058;-62
2022/03/27 03:44:02;;;;;;;1.98;1.83;;;;;;;-5.76;54.44;101610.06;4976000;28;20038;-64
2022/03/27 03:46:28;;;;;;;2.03;1.80;;;;;;;-5.71;54.40;101622.91;4977401;28;20074;-63
2022/03/27 03:48:54;;;;;;;1.83;1.70;;;;;;;-5.71;55.35;101628.09;4958647;28;20479;-63
2022/03/27 03:51:19;;;;;;;2.60;1.80;;;;;;;-5.72;54.40;101644.56;4975525;28;20045;-63
2022/03/27 03:53:45;;;;;;;1.80;1.70;;;;;;;-5.81;54.40;101617.09;4957635;28;20046;-64
2022/03/27 03:56:11;;;;;;;3.00;2.40;;;;;;;-5.78;53.82;101636.91;4974898;28;20126;-62
2022/03/27 03:58:37;;;;;;;3.73;1.80;;;;;;;-5.84;53.69;101644.84;4957527;28;20441;-64
2022/03/27 04:01:03;;;;;;;3.97;1.80;;;;;;;-5.90;53.36;101642.44;4975183;28;20035;-62
2022/03/27 04:03:30;;;;;;;3.72;2.00;;;;;;;-5.87;53.40;101647.50;4957496;28;20497;-62
2022/03/27 04:05:56;;;;;;;1.85;1.67;;;;;;;-5.88;53.91;101645.81;4957625;28;20043;-62
2022/03/27 04:08:21;;;;;;;2.23;1.63;;;;;;;-5.91;54.13;101645.91;4974397;28;20041;-64
2022/03/27 04:10:47;;;;;;;2.23;2.13;;;;;;;-5.91;54.04;101651.09;4974531;28;20035;-64
2022/03/27 04:13:38;;;;;;;2.33;2.00;;;;;;;-5.87;54.56;101652.69;4975689;28;20069;-62
2022/03/27 04:16:04;;;;;;;1.93;1.83;;;;;;;-6.07;54.86;101624.66;4975216;28;20137;-62
2022/03/27 04:18:30;;;;;;;1.97;1.87;;;;;;;-5.89;54.04;101659.69;4976181;28;20034;-61
2022/03/27 04:20:56;;;;;;;5.60;2.58;;;;;;;-5.86;53.78;101673.41;4960182;28;20033;-62
2022/03/27 04:23:21;;;;;;;2.63;1.87;;;;;;;-5.92;54.05;101660.63;4976892;28;20043;-63
2022/03/27 04:25:47;;;;;;;1.90;1.80;;;;;;;-5.94;54.27;101670.19;4977078;28;20086;-62
2022/03/27 04:28:12;;;;;;;5.87;2.17;;;;;;;-5.95;53.70;101666.75;4977991;28;20039;-64
2022/03/27 04:30:38;;;;;;;1.93;1.83;;;;;;;-6.06;54.02;101662.72;4975288;28;20042;-61
2022/03/27 04:33:04;;;;;;;1.70;1.60;;;;;;;-5.96;53.70;101675.41;4974941;28;20043;-62
2022/03/27 04:35:29;;;;;;;2.40;2.20;;;;;;;-6.00;53.92;101681.56;4974537;28;20038;-62
2022/03/27 04:37:55;;;;;;;2.20;1.97;;;;;;;-6.03;53.80;101688.56;4974926;28;20034;-63
2022/03/27 04:40:21;;;;;;;2.63;1.90;;;;;;;-5.97;54.04;101685.81;4975497;28;20405;-63
2022/03/27 04:42:46;;;;;;;1.98;1.88;;;;;;;-6.13;53.62;101664.56;4975704;28;20410;-61
2022/03/27 04:45:13;;;;;;;3.88;1.83;;;;;;;-6.04;54.20;101685.13;4975177;28;20065;-64
2022/03/27 04:47:39;;;;;;;2.23;1.60;;;;;;;-5.96;54.78;101696.16;4975295;28;20039;-65
2022/03/27 04:50:08;;;;;;;4.03;1.92;;;;;;;-5.98;53.88;101692.75;4975037;28;20185;-65
2022/03/27 04:52:34;;;;;;;1.83;1.73;;;;;;;-5.98;53.75;101687.56;4958329;28;20130;-66
2022/03/27 04:55:05;;;;;;;2.25;2.03;;;;;;;-6.05;53.86;101705.91;4974987;28;20494;-65
2022/03/27 04:57:39;;;;;;;2.20;2.10;;;;;;;-5.98;53.34;101707.47;4974576;28;20054;-62
2022/03/27 05:00:10;;;;;;;2.83;2.63;;;;;;;-6.06;52.78;101694.69;4974819;28;20177;-61
2022/03/27 05:02:38;;;;;;;2.05;1.85;;;;;;;-6.00;53.13;101699.72;4974581;28;20162;-59
2022/03/27 05:05:05;;;;;;;1.90;1.80;;;;;;;-5.99;52.08;101717.00;4974518;28;20039;-62
2022/03/27 05:07:34;;;;;;;2.83;1.67;;;;;;;-5.94;52.62;101712.53;4974540;28;20067;-64
2022/03/27 05:09:59;;;;;;;2.35;1.85;;;;;;;-5.95;52.20;101710.84;4974560;28;20096;-63
2022/03/27 05:12:25;;;;;;;2.27;2.07;;;;;;;-5.98;52.40;101708.31;4974969;28;20039;-60
2022/03/27 05:14:54;;;;;;;2.20;1.83;;;;;;;-5.96;52.08;101727.28;4958308;28;20486;-63
2022/03/27 05:17:20;;;;;;;2.13;2.00;;;;;;;-5.95;52.12;101723.81;4974450;28;20054;-63
2022/03/27 05:19:45;;;;;;;2.03;1.93;;;;;;;-5.94;52.19;101709.94;4975080;28;20085;-64
2022/03/27 05:22:11;;;;;;;1.90;1.80;;;;;;;-5.89;52.03;101722.78;4974133;28;20033;-66
2022/03/27 05:24:37;;;;;;;2.87;2.67;;;;;;;-5.87;52.04;101730.53;4973934;28;20035;-64
2022/03/27 05:27:02;;;;;;;1.90;1.80;;;;;;;-5.84;51.75;101730.44;4955853;28;20039;-64
2022/03/27 05:29:28;;;;;;;1.83;1.73;;;;;;;-5.81;51.21;101738.16;4972920;28;20042;-63
2022/03/27 05:31:53;;;;;;;2.10;1.73;;;;;;;-5.79;50.89;101738.97;4973694;28;20035;-62
2022/03/27 05:34:19;;;;;;;2.60;2.00;;;;;;;-5.78;49.85;101730.31;4973161;28;20045;-61
2022/03/27 05:36:45;;;;;;;1.80;1.60;;;;;;;-5.76;50.26;101744.97;4973147;28;20554;-61
2022/03/27 05:39:12;;;;;;;3.88;2.60;;;;;;;-5.76;49.59;101744.13;4955733;28;20082;-65
2022/03/27 05:41:39;;;;;;;9.02;2.08;;;;;;;-5.69;49.96;101754.31;4972807;28;20070;-62
2022/03/27 05:44:07;;;;;;;2.60;1.90;;;;;;;-5.65;50.03;101750.75;4972824;28;20516;-61
2022/03/27 05:46:33;;;;;;;2.20;2.10;;;;;;;-5.62;49.15;101753.28;4972859;28;20426;-61
2022/03/27 05:48:58;;;;;;;1.87;1.77;;;;;;;-5.82;49.17;101723.47;4975718;28;20094;-63
2022/03/27 05:51:24;;;;;;;2.00;1.80;;;;;;;-5.70;48.99;101738.78;4976586;28;20042;-64
2022/03/27 05:53:49;;;;;;;2.00;1.90;;;;;;;-5.59;49.42;101757.53;4976731;28;20081;-62
2022/03/27 05:56:15;;;;;;;3.53;1.80;;;;;;;-5.53;49.52;101761.72;4976566;28;20038;-62
2022/03/27 05:58:41;;;;;;;3.80;1.93;;;;;;;-5.57;48.85;101755.75;4976336;28;20034;-62
2022/03/27 06:01:06;;;;;;;2.30;1.80;;;;;;;-5.44;48.78;101757.19;4976893;28;20035;-65
2022/03/27 06:03:32;;;;;;;2.93;1.93;;;;;;;-5.43;48.26;101761.50;4977532;28;20039;-65
2022/03/27 06:05:58;;;;;;;2.97;2.05;;;;;;;-5.51;47.55;101758.22;4976272;28;20413;-63
2022/03/27 06:08:23;;;;;;;1.80;1.70;;;;;;;-5.45;47.97;101765.88;4976504;28;20043;-63
2022/03/27 06:10:49;;;;;;;4.53;1.93;;;;;;;-5.43;48.54;101748.53;4976506;28;20409;-61
2022/03/27 06:13:16;;;;;;;10.73;2.70;;;;;;;-5.36;47.44;101781.22;4976261;28;20042;-63
2022/03/27 06:16:06;;;;;;;2.50;2.00;;;;;;;-5.35;47.17;101772.53;4976797;28;20101;-65
2022/03/27 06:18:32;;;;;;;4.97;2.27;;;;;;;-5.35;47.25;101787.28;4977425;28;20126;-62
2022/03/27 06:20:57;;;;;;;2.73;2.10;;;;;;;-5.32;47.33;101782.00;4976202;28;20434;-63
2022/03/27 06:23:23;;;;;;;3.40;2.03;;;;;;;-5.43;46.40;101771.88;4976853;28;20043;-62
2022/03/27 06:25:48;;;;;;;3.40;1.57;;;;;;;-5.33;46.63;101775.94;4977274;28;20923;-65
2022/03/27 06:28:14;;;;;;;1.90;1.80;;;;;;;-5.26;46.48;101796.56;4976107;28;20113;-66
2022/03/27 06:30:40;;;;;;;2.10;2.00;;;;;;;-5.34;45.92;101787.22;4976310;28;20041;-63
2022/03/27 06:33:06;;;;;;;1.95;1.85;;;;;;;-5.28;46.48;101782.78;4976389;28;20126;-64
2022/03/27 06:35:32;;;;;;;9.53;2.00;;;;;;;-5.28;45.99;101799.22;4975782;28;20118;-64
2022/03/27 06:37:57;;;;;;;2.20;2.00;;;;;;;-5.32;46.43;101789.78;4976476;28;20038;-63
2022/03/27 06:40:23;;;;;;;3.40;1.90;;;;;;;-5.15;45.81;101802.38;4976022;28;20031;-63
2022/03/27 06:42:51;;;;;;;2.43;2.00;;;;;;;-5.07;45.96;101797.84;4975483;28;20055;-64
2022/03/27 06:45:42;;;;;;;2.85;2.28;;;;;;;-5.05;45.22;101801.25;4976165;28;20293;-62
2022/03/27 06:48:08;;;;;;;5.20;1.67;;;;;;;-5.01;45.34;101803.72;4976264;28;20418;-63
2022/03/27 06:50:34;;;;;;;2.10;2.00;;;;;;;-4.94;45.76;101814.81;4975653;28;20077;-63
2022/03/27 06:52:59;;;;;;;2.10;1.90;;;;;;;-5.05;45.23;101794.31;4975231;28;20043;-64
2022/03/27 06:55:27;;;;;;;2.03;1.93;;;;;;;-4.87;45.02;101810.34;4976002;28;20045;-62
2022/03/27 06:57:52;;;;;;;1.92;1.83;;;;;;;-4.79;44.79;101811.84;4975522;28;20126;-64
2022/03/27 07:03:02;;;;;;;2.80;1.70;;;;;;;-4.71;44.61;101820.28;4962373;28;20041;-63
2022/03/27 07:05:30;;;;;;;3.97;2.03;;;;;;;-4.74;43.70;101806.53;4975591;28;20039;-62
2022/03/27 07:07:56;;;;;;;2.00;1.75;;;;;;;-4.78;42.57;101810.94;4975147;28;20031;-63
2022/03/27 07:10:22;;;;;;;1.93;1.83;;;;;;;-4.77;42.76;101804.00;4975173;28;20034;-63
2022/03/27 07:12:48;;;;;;;1.77;1.67;;;;;;;-4.72;43.58;101810.78;4975161;28;20050;-64
2022/03/27 07:15:14;;;;;;;1.70;1.55;;;;;;;-4.65;43.28;101802.81;4975012;28;20409;-63
2022/03/27 07:17:59;;;;;;;1.70;1.60;;;;;;;-4.48;43.15;101811.88;4975147;28;20138;-68
2022/03/27 07:20:29;;;;;;;2.20;1.70;;;;;;;-4.45;41.73;101813.56;4975730;28;20038;-66
2022/03/27 07:23:00;;;;;;;2.60;2.10;;;;;;;-4.44;42.00;101799.66;4975240;28;20042;-66
2022/03/27 07:25:27;;;;;;;4.22;2.00;;;;;;;-4.43;42.08;101822.16;4975784;28;20093;-66
2022/03/27 07:27:53;;;;;;;3.63;1.75;;;;;;;-4.51;43.11;101809.38;4976123;28;20043;-62
2022/03/27 07:30:19;;;;;;;2.30;1.92;;;;;;;-4.40;42.54;101819.47;4974848;28;20525;-63
2022/03/27 07:32:44;;;;;;;6.63;1.70;;;;;;;-4.31;41.53;101816.66;4975510;28;20125;-63
2022/03/27 07:35:14;;;;;;;4.97;1.70;;;;;;;-4.35;40.69;101809.78;4975829;28;20054;-65
2022/03/27 07:37:41;;;;;;;2.78;2.25;;;;;;;-4.26;41.10;101822.56;4974757;28;20062;-65
2022/03/27 07:40:08;;;;;;;1.95;1.80;;;;;;;-4.27;40.29;101820.00;4974792;28;20085;-64
2022/03/27 07:42:46;;;;;;;1.88;1.63;;;;;;;-4.26;41.72;101819.97;4974753;28;20063;-64
2022/03/27 07:45:13;;;;;;;4.53;1.40;;;;;;;-4.19;41.19;101821.50;4974616;28;20048;-63
2022/03/27 07:47:40;;;;;;;4.38;2.13;;;;;;;-4.13;40.77;101810.91;4975051;28;20091;-62
2022/03/27 07:50:07;;;;;;;1.50;1.40;;;;;;;-4.11;40.09;101814.31;4974893;28;20038;-63
2022/03/27 07:52:34;;;;;;;7.22;2.15;;;;;;;-4.10;40.18;101813.41;4974813;28;20046;-64
2022/03/27 07:55:00;;;;;;;2.00;1.90;;;;;;;-4.13;40.83;101815.25;4974741;28;20051;-63
2022/03/27 07:57:27;;;;;;;1.70;1.60;;;;;;;-3.97;40.58;101807.88;4974503;28;20047;-65
2022/03/27 07:59:53;;;;;;;2.35;1.70;;;;;;;-3.80;40.28;101808.22;4974691;28;20042;-65
2022/03/27 08:02:19;;;;;;;2.63;2.13;;;;;;;-3.75;40.37;101812.41;4956769;28;20126;-65
2022/03/27 08:04:45;;;;;;;3.90;1.60;;;;;;;-3.69;39.79;101819.19;4976043;28;20120;-64
2022/03/27 08:07:10;;;;;;;3.83;1.50;;;;;;;-3.74;38.57;101802.84;4974982;28;20136;-62
2022/03/27 08:10:21;;;;;;;1.90;1.60;;;;;;;-3.76;38.75;101815.03;4976206;28;20049;-64
2022/03/27 08:13:19;;;;;;;4.57;1.65;;;;;;;-3.77;38.17;101818.53;4939853;28;20047;-66
2022/03/27 08:15:59;;;;;;;16.05;5.85;;;;;;;-3.73;38.98;101814.97;4959680;28;20046;-65
2022/03/27 08:18:41;;;;;;;3.00;2.72;;;;;;;-3.69;38.55;101827.00;4958799;28;20042;-63
2022/03/27 08:21:07;;;;;;;2.35;1.83;;;;;;;-3.67;37.97;101825.19;4972511;28;20112;-63
2022/03/27 08:23:33;;;;;;;2.00;1.80;;;;;;;-3.72;37.97;101827.09;4974258;28;20108;-63
2022/03/27 08:29:02;;;;;;;2.38;2.17;;;;;;;-3.55;37.51;101824.81;4958660;28;20042;-64
2022/03/27 08:31:40;;;;;;;2.22;1.70;;;;;;;-3.55;38.19;101850.84;4975729;28;20093;-64
2022/03/27 08:34:32;;;;;;;1.73;1.50;;;;;;;-3.57;37.18;101834.41;4949261;28;20050;-64
2022/03/27 08:37:10;;;;;;;2.40;1.70;;;;;;;-3.67;35.80;101839.97;4977468;28;20138;-63
2022/03/27 08:39:36;;;;;;;1.83;1.67;;;;;;;-3.67;36.38;101835.59;4974326;28;20042;-62
2022/03/27 08:42:05;;;;;;;4.63;1.85;;;;;;;-3.61;37.19;101825.00;4973716;28;20061;-65
2022/03/27 08:44:34;;;;;;;11.25;2.08;;;;;;;-3.56;37.11;101817.91;4973730;28;20082;-66
2022/03/27 08:47:02;;;;;;;1.75;1.65;;;;;;;-3.35;37.73;101842.44;4973633;28;20046;-64
2022/03/27 08:50:00;;;;;;;2.22;1.42;;;;;;;-3.28;37.06;101827.47;4974303;28;20042;-64
2022/03/27 08:52:56;;;;;;;;;;;;;;;;;;;;;
2022/03/27 08:56:07;;;;;;;2.08;1.75;;;;;;;-3.13;35.98;101847.84;4956618;28;20498;-68
2022/03/27 08:58:39;;;;;;;5.32;1.73;;;;;;;-3.16;36.27;101819.28;4973892;28;20031;-64
2022/03/27 09:01:14;;;;;;;2.10;1.50;;;;;;;-3.07;35.36;101824.19;4973523;28;20552;-64
2022/03/27 09:03:39;;;;;;;2.83;1.70;;;;;;;-3.09;35.51;101818.16;4973748;28;20474;-62
2022/03/27 09:06:07;;;;;;;1.60;1.50;;;;;;;-3.08;36.28;101808.59;4973903;28;20146;-66
2022/03/27 09:08:34;;;;;;;1.73;1.60;;;;;;;-2.96;35.17;101823.81;4973977;28;20034;-65
2022/03/27 09:11:01;;;;;;;2.45;1.73;;;;;;;-2.94;36.42;101807.22;4974238;28;20050;-64
2022/03/27 09:13:27;;;;;;;2.42;1.85;;;;;;;-2.82;36.26;101813.81;4973494;28;20049;-64
2022/03/27 09:16:01;;;;;;;3.03;1.83;;;;;;;-2.79;35.69;101818.06;4974860;28;20039;-64
2022/03/27 09:18:47;;;;;;;5.00;1.50;;;;;;;-2.77;33.58;101827.53;4975200;28;20046;-65
2022/03/27 09:21:14;;;;;;;5.30;1.92;;;;;;;-2.83;34.75;101825.97;4973686;28;20108;-62
2022/03/27 09:23:40;;;;;;;2.00;1.90;;;;;;;-2.88;34.92;101814.00;4955748;28;20405;-63
2022/03/27 09:26:13;;;;;;;6.10;3.93;;;;;;;-2.82;35.54;101822.47;4973271;28;20035;-65
2022/03/27 09:28:53;;;;;;;3.28;2.13;;;;;;;-2.83;35.19;101835.56;4973479;28;20050;-69
2022/03/27 09:31:22;;;;;;;3.60;1.70;;;;;;;-2.83;34.04;101820.78;4973876;28;20601;-65
2022/03/27 09:33:51;;;;;;;3.08;1.50;;;;;;;-2.86;34.35;101818.28;4956931;28;20123;-66
2022/03/27 09:36:25;;;;;;;3.30;1.50;;;;;;;-2.78;34.55;101817.16;4974312;28;20417;-65
2022/03/27 09:39:19;;;;;;;2.20;2.10;;;;;;;-2.79;34.34;101810.25;4975552;28;20516;-64
2022/03/27 09:42:03;;;;;;;5.65;1.83;;;;;;;-2.70;35.39;101818.59;4974039;28;20051;-63
2022/03/27 09:44:34;;;;;;;2.00;1.42;;;;;;;-2.68;34.24;101803.75;4974508;28;20106;-66
2022/03/27 09:47:10;;;;;;;1.67;1.58;;;;;;;-2.50;34.25;101820.53;4973766;28;20081;-64
2022/03/27 09:49:38;;;;;;;2.08;1.80;;;;;;;-2.47;33.83;101812.59;4974425;28;20445;-67
2022/03/27 09:52:15;;;;;;;6.00;1.83;;;;;;;-2.51;33.49;101818.81;4956764;28;20047;-65
2022/03/27 09:54:44;;;;;;;2.85;1.95;;;;;;;-2.44;34.04;101812.47;4973609;28;20513;-63
2022/03/27 09:57:17;;;;;;;2.92;2.50;;;;;;;-2.41;34.58;101799.31;4973589;28;20035;-64
2022/03/27 09:59:42;;;;;;;4.07;2.85;;;;;;;-2.23;35.51;101798.66;4955983;28;20638;-66
2022/03/27 10:02:27;;;;;;;3.10;1.70;;;;;;;-2.15;34.16;101797.53;4973262;28;20135;-65
2022/03/27 10:05:05;;;;;;;2.80;1.90;;;;;;;-2.14;34.20;101794.00;4955738;28;20403;-65
2022/03/27 10:07:42;;;;;;;4.60;1.90;;;;;;;-2.04;34.15;101808.41;4973113;28;20090;-67
2022/03/27 10:10:17;;;;;;;5.65;2.47;;;;;;;-2.00;34.43;101810.03;4973237;28;20035;-63
2022/03/27 10:12:46;;;;;;;10.50;6.72;;;;;;;-1.99;34.28;101803.91;4972926;28;20130;-63
2022/03/27 10:15:17;;;;;;;1.57;1.47;;;;;;;-2.09;32.84;101810.34;4972598;28;20070;-65
2022/03/27 10:17:49;;;;;;;2.85;1.65;;;;;;;-2.09;33.05;101792.09;4956265;28;20085;-64
2022/03/27 10:20:17;;;;;;;3.08;1.90;;;;;;;-2.06;33.92;101797.19;4972985;28;20046;-63
2022/03/27 10:22:56;;;;;;;2.80;1.95;;;;;;;-1.91;34.51;101807.91;4972989;28;20038;-63
2022/03/27 10:25:26;;;;;;;3.50;1.60;;;;;;;-2.02;33.68;101788.34;4972974;28;20046;-64
2022/03/27 10:27:53;;;;;;;2.53;1.50;;;;;;;-1.93;34.47;101799.28;4972652;28;20066;-68
2022/03/27 10:30:19;;;;;;;4.00;1.55;;;;;;;-1.97;33.50;101786.41;4972745;28;20042;-64
2022/03/27 10:32:45;;;;;;;4.03;1.30;;;;;;;-1.89;34.39;101800.03;4972579;28;20035;-63
2022/03/27 10:35:35;;;;;;;2.95;1.52;;;;;;;-1.84;34.53;101797.25;4973878;28;20034;-64
2022/03/27 10:38:11;;;;;;;5.97;1.50;;;;;;;-1.66;35.54;101800.00;4976012;28;20038;-65
2022/03/27 10:40:55;;;;;;;3.53;1.77;;;;;;;-1.57;35.36;101804.88;4959056;28;20490;-66
2022/03/27 10:43:44;;;;;;;2.05;1.60;;;;;;;-1.50;34.98;101809.84;4976023;28;20551;-67
2022/03/27 10:46:18;;;;;;;2.63;1.48;;;;;;;-1.58;35.26;101800.56;4975801;28;20114;-65
2022/03/27 10:48:45;;;;;;;5.25;1.63;;;;;;;-1.55;36.20;101815.25;4976084;28;20065;-64
2022/03/27 10:51:31;;;;;;;9.48;1.98;;;;;;;-1.61;36.60;101794.59;4976573;28;20041;-64
2022/03/27 10:54:18;;;;;;;1.60;1.50;;;;;;;-1.62;35.17;101806.81;4975840;28;20047;-64
2022/03/27 10:56:48;;;;;;;3.15;1.90;;;;;;;-1.64;35.20;101813.00;4958465;28;20035;-63
2022/03/27 10:59:25;;;;;;;8.13;3.63;;;;;;;-1.61;35.35;101798.06;4975686;28;20039;-65
2022/03/27 11:01:57;;;;;;;6.82;1.73;;;;;;;-1.51;35.39;101802.91;4975760;28;20588;-63
2022/03/27 11:04:37;;;;;;;8.18;2.22;;;;;;;-1.37;36.10;101805.84;4975657;28;20042;-65
2022/03/27 11:07:21;;;;;;;2.30;1.40;;;;;;;-1.37;35.36;101803.25;4975860;28;20461;-65
2022/03/27 11:09:47;;;;;;;3.80;1.98;;;;;;;-1.49;33.96;101799.34;4975591;28;20043;-65
2022/03/27 11:12:25;;;;;;;3.30;1.43;;;;;;;-1.54;33.92;101808.28;4958455;28;20125;-65
2022/03/27 11:14:54;;;;;;;3.65;1.50;;;;;;;-1.61;35.28;101800.69;4975435;28;20096;-64
2022/03/27 11:17:46;;;;;;;7.72;2.72;;;;;;;-1.44;35.48;101802.66;4957921;28;20049;-62
2022/03/27 11:20:17;;;;;;;4.22;1.75;;;;;;;-1.27;34.04;101794.13;4975868;28;20031;-63
2022/03/27 11:22:51;;;;;;;6.18;2.08;;;;;;;-1.27;34.03;101794.13;4975289;28;20066;-64
2022/03/27 11:25:36;;;;;;;3.50;2.00;;;;;;;-1.33;34.81;101794.38;4975201;28;20604;-64
2022/03/27 11:28:08;;;;;;;3.85;1.65;;;;;;;-1.17;34.66;101792.81;4975086;28;20038;-64
2022/03/27 11:30:56;;;;;;;7.57;1.88;;;;;;;-1.12;34.12;101788.28;4975094;28;20039;-66
2022/03/27 11:33:25;;;;;;;2.65;1.40;;;;;;;-1.06;33.90;101780.19;4957633;28;20773;-64
2022/03/27 11:36:09;;;;;;;6.25;1.60;;;;;;;-1.13;33.30;101789.19;4975599;28;20093;-63
2022/03/27 11:38:58;;;;;;;3.70;1.50;;;;;;;-1.44;33.33;101757.38;4975099;28;20494;-67
2022/03/27 11:41:51;;;;;;;9.50;1.80;;;;;;;-1.21;34.24;101798.25;4962428;28;20141;-62
2022/03/27 11:44:17;;;;;;;3.53;1.73;;;;;;;-1.22;34.01;101791.31;4975741;28;20045;-64
2022/03/27 11:46:56;;;;;;;4.37;1.67;;;;;;;-1.24;33.16;101783.53;4974491;28;20031;-65